Latest METARs, TAFs and NOTAMs for TJBQ


---------------------------------------------------------------------------
	(OBSERVATIONS)
TJBQ 230350Z 13003KT 10SM SKC 26/23 A2999=
TJBQ 230250Z 11007KT 10SM SCT022 SCT028 SCT065 26/24 A3000=
TJBQ 230150Z 12004KT 10SM SCT020 SCT028 SCT037 26/24 A3000=
---------------------------------------------------------------------------
	(TERMINAL AREA FORECAST)
TJBQ 222333Z 2300/2324 10007KT P6SM VCSH SCT030 SCT050 BKN090
    FM231300 07015KT P6SM FEW035 SCT045
    FM231800 08014KT P6SM VCTS SCT020 SCT035CB BKN050
    FM232030 10008KT P6SM VCSH SCT020
    AMD NOT SKED 2302/2311=
---------------------------------------------------------------------------
	(NOTAMS)


TJBQ 04/056 NAV TACAN AZM U/S. 27 APR 10:32 2017 UNTIL 31 OCT
    20:00 2017 ESTIMATED. CREATED: 27 APR 10:32 2017

TJBQ 06/066 APRON LUFTHANSA FEEDER RAMP AND TXL WIP VARIOUS MAINT
    WORK MON-FRI 1100-2000. 26 JUN 11:00 2017 UNTIL 30 SEP 20:00
    2017. CREATED: 24 JUN 11:39 2017

TJBQ 08/009 OBST TOWER LGT (ASR 1010661) 182550.40N0670749.90W
    (3.8NM S BQN) 946.9FT (222.1FT AGL) OUT OF SERVICE. 03 AUG
    13:58 2017 UNTIL 03 SEP 14:00 2017. CREATED: 03 AUG 13:58
    2017

TJBQ 08/025 TWY A EDGE AT INT TWY C WIP CONST DLY 1100-2000.
    10 AUG 11:00 2017 UNTIL 23 AUG 20:00 2017. CREATED: 09 AUG
    16:00 2017

TJBQ 08/053 SVC TWR OPN CLASS D SERVICE AVBL. 23 AUG 01:00 2017
    UNTIL 23 AUG 05:00 2017. CREATED: 23 AUG 00:54 2017

TJBQ 11/026 TWY A 1100FT WEST OF TWY C CLSD. 10 NOV 14:52 2016
    UNTIL 10 NOV 15:00 2017. CREATED: 10 NOV 14:52 2016

TJBQ 7/6264 !FDC IAP RAFAEL HERNANDEZ, Aguadilla, PR. VOR/DME
    OR TACAN RWY 26, ORIG-C ... DELETE THRE 194, CHART TDZE 210.
    S-26 MDA 620/HAT 410 ALL CATS, VIS CATS C/D 1 1/8. CHART
    NOTE: RWY 26 HELICOPTER VISIBILITY BELOW 3/4 SM NOT AUTHORIZED.
    CHART NOTE: DME REQUIRED. CHART PLANVIEW NOTE: DME REQUIRED.
    DELETE NOTE: HELICOPTER VISIBILITY REDUCTION BELOW 3/4 SM
    NA. CHART FAS OBST: 320 TOWER 183002N/0670605W. THIS IS VOR
    OR TACAN RWY 26, ORIG-D. 08 AUG 16:34 2017 UNTIL PERM. CREATED:
    08 AUG 16:35 2017

TJBQ A0207/17 /BQN/ TACAN AZM U/S. 27 APR 10:32 2017 UNTIL 31
    OCT 20:00 2017 ESTIMATED. CREATED: 27 APR 10:32 2017

TJBQ A0351/17 APRON LUFTHANSA FEEDER RAMP AND TXL WIP VARIOUS
    MAINT WORK. MON-FRI 1100-2000, 26 JUN 11:00 2017 UNTIL 30
    SEP 20:00 2017. CREATED: 24 JUN 11:45 2017

TJBQ A0379/16 TWY A 1100FT WEST OF TWY C CLSD. 10 NOV 14:52 2016
    UNTIL 10 NOV 15:00 2017. CREATED: 10 NOV 14:59 2016

TJBQ A0436/17 VOR/DME OR TACAN RWY 26, ORIG-C ... DELETE THRE
    194, CHART TDZE 210. S-26 MDA 620/HAT 410 ALL CATS, VIS CATS
    C/D 1 1/8. CHART NOTE: RWY 26 HELICOPTER VISIBILITY BELOW
    3/4 SM NOT AUTHORIZED. CHART NOTE: DME REQUIRED. CHART PLANVIEW
    NOTE: DME REQUIRED. DELETE NOTE: HELICOPTER VISIBILITY REDUCTION
    BELOW 3/4 SM NA. CHART FAS OBST: 320 TOWER 183002N/0670605W.
    THIS IS VOR OR TACAN RWY 26, ORIG-D. 08 AUG 16:34 2017 UNTIL
    PERM. CREATED: 08 AUG 16:36 2017

TJBQ A0447/17 TWY A EDGE AT INT TWY C WIP CONST. DLY 1100-2000,
    10 AUG 11:00 2017 UNTIL 23 AUG 20:00 2017. CREATED: 09 AUG
    16:08 2017

---------------------------------------------------------------------------